createdAt,value
2022-10-01T00:00:20.436Z,14.58
2022-10-01T00:01:20.468Z,14.55
2022-10-01T00:02:20.373Z,14.59
2022-10-01T00:03:20.389Z,14.66
2022-10-01T00:04:20.303Z,14.60
2022-10-01T00:05:20.281Z,14.54
2022-10-01T00:06:20.236Z,14.60
2022-10-01T00:07:20.200Z,14.68
2022-10-01T00:08:20.174Z,14.72
2022-10-01T00:09:20.134Z,14.73
2022-10-01T00:10:20.095Z,14.72
2022-10-01T00:11:20.060Z,14.77
2022-10-01T00:12:20.028Z,14.73
2022-10-01T00:13:19.995Z,14.72
2022-10-01T00:14:19.963Z,14.70
2022-10-01T00:15:19.950Z,14.77
2022-10-01T00:16:19.927Z,14.63
2022-10-01T00:17:19.859Z,14.65
2022-10-01T00:18:19.823Z,14.63
2022-10-01T00:19:19.790Z,14.54
2022-10-01T00:20:19.755Z,14.44
2022-10-01T00:21:19.718Z,14.48
2022-10-01T00:22:19.692Z,14.54
2022-10-01T00:23:19.655Z,14.53
2022-10-01T00:24:19.636Z,14.55
2022-10-01T00:25:19.586Z,14.50
2022-10-01T00:26:19.550Z,14.50
2022-10-01T00:27:19.518Z,14.47
2022-10-01T00:28:19.518Z,14.40
2022-10-01T00:29:19.461Z,14.29
2022-10-01T00:30:19.414Z,14.32
2022-10-01T00:31:19.417Z,14.36
2022-10-01T00:32:19.350Z,14.28
2022-10-01T00:33:19.312Z,14.35
2022-10-01T00:34:19.278Z,14.30
2022-10-01T00:35:19.245Z,14.17
2022-10-01T00:36:19.209Z,14.23
2022-10-01T00:37:19.197Z,14.23
2022-10-01T00:38:19.139Z,14.23
2022-10-01T00:39:19.105Z,14.22
2022-10-01T00:40:19.070Z,14.23
2022-10-01T00:41:19.039Z,14.20
2022-10-01T00:42:19.010Z,14.08
2022-10-01T00:43:18.969Z,14.03
2022-10-01T00:44:18.934Z,14.08
2022-10-01T00:45:18.901Z,14.15
2022-10-01T00:46:18.910Z,14.00
2022-10-01T00:47:18.830Z,14.04
2022-10-01T00:48:18.799Z,14.03
2022-10-01T00:49:18.785Z,14.04
2022-10-01T00:50:18.727Z,14.10
2022-10-01T00:51:18.708Z,14.08
2022-10-01T00:52:18.660Z,14.05
2022-10-01T00:53:18.626Z,13.93
2022-10-01T00:54:18.588Z,13.92
2022-10-01T00:55:18.551Z,13.85
2022-10-01T00:56:18.542Z,13.74
2022-10-01T00:57:18.488Z,13.85
2022-10-01T00:58:18.450Z,13.77
2022-10-01T00:59:18.415Z,13.86
2022-10-01T01:00:18.383Z,13.77
2022-10-01T01:01:18.384Z,13.75
2022-10-01T01:02:18.359Z,13.72
2022-10-01T01:03:18.301Z,13.79
2022-10-01T01:04:18.254Z,13.72
2022-10-01T01:05:18.208Z,13.74
2022-10-01T01:06:18.174Z,13.74
2022-10-01T01:07:18.139Z,13.74
2022-10-01T01:08:18.127Z,13.77
2022-10-01T01:09:18.074Z,13.71
2022-10-01T01:10:18.037Z,13.78
2022-10-01T01:11:18.000Z,13.75
2022-10-01T01:12:17.970Z,13.65
2022-10-01T01:13:17.933Z,13.67
2022-10-01T01:14:17.898Z,13.70
2022-10-01T01:15:17.891Z,13.71
2022-10-01T01:16:17.874Z,13.71
2022-10-01T01:17:17.793Z,13.65
2022-10-01T01:18:17.761Z,13.67
2022-10-01T01:19:17.722Z,13.63
2022-10-01T01:20:17.700Z,13.68
2022-10-01T01:21:17.654Z,13.57
2022-10-01T01:22:17.618Z,13.65
2022-10-01T01:23:17.584Z,13.68
2022-10-01T01:24:17.580Z,13.63
2022-10-01T01:25:17.518Z,13.59
2022-10-01T01:26:17.478Z,13.65
2022-10-01T01:27:17.444Z,13.52
2022-10-01T01:28:17.524Z,13.46
2022-10-01T01:29:17.375Z,13.46
2022-10-01T01:30:17.342Z,13.41
2022-10-01T01:31:17.375Z,13.33
2022-10-01T01:32:17.271Z,13.35
2022-10-01T01:33:17.240Z,13.27
2022-10-01T01:34:17.200Z,13.44
2022-10-01T01:35:17.166Z,13.38
2022-10-01T01:36:17.139Z,13.39
2022-10-01T01:37:17.098Z,13.25
2022-10-01T01:38:17.060Z,13.37
2022-10-01T01:39:17.044Z,13.35
2022-10-01T01:40:16.993Z,13.33
2022-10-01T01:41:16.957Z,13.30
2022-10-01T01:42:16.924Z,13.37
2022-10-01T01:43:16.897Z,13.33
2022-10-01T01:44:16.857Z,13.33
2022-10-01T01:45:16.818Z,13.39
2022-10-01T01:46:16.841Z,13.35
2022-10-01T01:47:16.747Z,13.31
2022-10-01T01:48:16.711Z,13.37
2022-10-01T01:49:16.679Z,13.30
2022-10-01T01:50:16.643Z,13.30
2022-10-01T01:51:16.616Z,13.30
2022-10-01T01:52:16.584Z,13.37
2022-10-01T01:53:16.539Z,13.31
2022-10-01T01:54:16.521Z,13.33
2022-10-01T01:55:16.469Z,13.33
2022-10-01T01:56:16.437Z,13.37
2022-10-01T01:57:16.397Z,13.37
2022-10-01T01:58:16.365Z,13.35
2022-10-01T01:59:16.329Z,13.33
2022-10-01T02:00:16.295Z,13.28
2022-10-01T02:01:16.290Z,13.31
2022-10-01T02:02:16.352Z,13.28
2022-10-01T02:03:16.188Z,13.23
2022-10-01T02:04:16.152Z,13.22
2022-10-01T02:05:16.129Z,13.23
2022-10-01T02:06:16.088Z,13.23
2022-10-01T02:07:16.047Z,13.23
2022-10-01T02:08:16.021Z,13.15
2022-10-01T02:09:15.988Z,13.20
2022-10-01T02:10:15.943Z,13.15
2022-10-01T02:11:15.913Z,13.28
2022-10-01T02:12:15.874Z,13.22
2022-10-01T02:13:15.838Z,13.18
2022-10-01T02:14:15.802Z,13.18
2022-10-01T02:15:15.769Z,13.19
2022-10-01T02:16:15.808Z,13.20
2022-10-01T02:17:15.700Z,13.15
2022-10-01T02:18:15.663Z,13.15
2022-10-01T02:19:15.635Z,13.20
2022-10-01T02:20:15.600Z,13.13
2022-10-01T02:21:15.561Z,13.13
2022-10-01T02:22:15.526Z,13.25
2022-10-01T02:23:15.490Z,13.18
2022-10-01T02:24:15.460Z,13.20
2022-10-01T02:25:15.419Z,13.16
2022-10-01T02:26:15.386Z,13.28
2022-10-01T02:27:15.349Z,13.15
2022-10-01T02:28:15.533Z,13.16
2022-10-01T02:29:15.279Z,13.13
2022-10-01T02:30:15.243Z,13.22
2022-10-01T02:31:15.269Z,13.19
2022-10-01T02:32:15.175Z,13.15
2022-10-01T02:33:15.139Z,13.16
2022-10-01T02:34:18.260Z,13.18
2022-10-01T02:35:15.068Z,13.11
2022-10-01T02:36:15.037Z,13.19
2022-10-01T02:37:15.000Z,13.20
2022-10-01T02:38:14.963Z,13.20
2022-10-01T02:39:14.929Z,13.18
2022-10-01T02:40:14.895Z,13.20
2022-10-01T02:41:14.859Z,13.18
2022-10-01T02:42:14.820Z,13.13
2022-10-01T02:43:14.785Z,13.15
2022-10-01T02:44:14.769Z,13.16
2022-10-01T02:45:14.718Z,13.11
2022-10-01T02:46:14.730Z,13.15
2022-10-01T02:47:14.647Z,13.04
2022-10-01T02:48:14.622Z,13.04
2022-10-01T02:49:14.581Z,13.11
2022-10-01T02:50:14.541Z,13.08
2022-10-01T02:51:14.509Z,13.12
2022-10-01T02:52:14.472Z,13.03
2022-10-01T02:53:14.437Z,13.13
2022-10-01T02:54:14.400Z,13.08
2022-10-01T02:55:14.371Z,12.98
2022-10-01T02:56:14.331Z,13.08
2022-10-01T02:57:14.294Z,13.04
2022-10-01T02:58:14.259Z,13.11
2022-10-01T02:59:14.224Z,13.05
2022-10-01T03:00:14.189Z,13.04
2022-10-01T03:01:14.203Z,13.03
2022-10-01T03:02:14.356Z,13.03
2022-10-01T03:03:15.234Z,13.11
2022-10-01T03:04:14.071Z,13.18
2022-10-01T03:05:14.017Z,13.04
2022-10-01T03:06:14.014Z,13.15
2022-10-01T03:07:13.943Z,13.12
2022-10-01T03:08:13.913Z,13.13
2022-10-01T03:09:13.878Z,13.15
2022-10-01T03:10:13.843Z,13.15
2022-10-01T03:11:13.809Z,13.11
2022-10-01T03:12:13.773Z,13.13
2022-10-01T03:13:13.738Z,13.12
2022-10-01T03:14:13.697Z,13.13
2022-10-01T03:15:13.666Z,13.05
2022-10-01T03:16:13.710Z,13.09
2022-10-01T03:17:13.593Z,13.09
2022-10-01T03:18:13.557Z,13.04
2022-10-01T03:19:13.559Z,13.20
2022-10-01T03:20:13.489Z,13.12
2022-10-01T03:21:13.455Z,13.23
2022-10-01T03:22:13.417Z,13.19
2022-10-01T03:23:13.405Z,13.18
2022-10-01T03:24:13.348Z,13.08
2022-10-01T03:25:13.313Z,13.01
2022-10-01T03:26:13.281Z,13.09
2022-10-01T03:27:13.243Z,13.13
2022-10-01T03:28:13.239Z,13.09
2022-10-01T03:29:13.174Z,13.05
2022-10-01T03:30:13.144Z,13.05
2022-10-01T03:31:13.139Z,12.97
2022-10-01T03:32:13.069Z,12.87
2022-10-01T03:33:13.034Z,12.86
2022-10-01T03:34:13.003Z,12.86
2022-10-01T03:35:12.963Z,12.79
2022-10-01T03:36:12.933Z,12.78
2022-10-01T03:37:12.889Z,12.86
2022-10-01T03:38:12.883Z,12.80
2022-10-01T03:39:12.821Z,12.76
2022-10-01T03:40:12.786Z,12.76
2022-10-01T03:41:12.768Z,12.82
2022-10-01T03:42:12.715Z,12.78
2022-10-01T03:43:12.680Z,12.73
2022-10-01T03:44:12.649Z,12.79
2022-10-01T03:45:12.610Z,12.80
2022-10-01T03:46:12.626Z,12.70
2022-10-01T03:47:12.538Z,12.68
2022-10-01T03:48:12.506Z,12.72
2022-10-01T03:49:12.466Z,12.70
2022-10-01T03:50:12.438Z,12.68
2022-10-01T03:51:15.553Z,12.64
2022-10-01T03:52:12.366Z,12.70
2022-10-01T03:53:12.323Z,12.68
2022-10-01T03:54:12.290Z,12.68
2022-10-01T03:55:12.255Z,12.57
2022-10-01T03:56:12.257Z,12.60
2022-10-01T03:57:12.189Z,12.54
2022-10-01T03:58:12.148Z,12.60
2022-10-01T03:59:12.127Z,12.64
2022-10-01T04:00:12.099Z,12.55
2022-10-01T04:01:12.187Z,12.64
2022-10-01T04:02:12.186Z,12.54
2022-10-01T04:03:12.001Z,12.57
2022-10-01T04:04:11.937Z,12.67
2022-10-01T04:05:11.899Z,12.62
2022-10-01T04:06:11.865Z,12.62
2022-10-01T04:07:11.833Z,12.65
2022-10-01T04:08:11.796Z,12.61
2022-10-01T04:09:11.759Z,12.61
2022-10-01T04:10:11.722Z,12.60
2022-10-01T04:11:11.729Z,12.70
2022-10-01T04:12:11.655Z,12.61
2022-10-01T04:13:11.622Z,12.61
2022-10-01T04:14:11.584Z,12.60
2022-10-01T04:15:11.564Z,12.62
2022-10-01T04:16:11.567Z,12.60
2022-10-01T04:17:11.481Z,12.62
2022-10-01T04:18:11.443Z,12.55
2022-10-01T04:19:11.423Z,12.65
2022-10-01T04:20:11.370Z,12.67
2022-10-01T04:21:11.334Z,12.62
2022-10-01T04:22:11.313Z,12.65
2022-10-01T04:23:11.265Z,12.55
2022-10-01T04:24:11.226Z,12.61
2022-10-01T04:25:11.189Z,12.61
2022-10-01T04:26:11.157Z,12.60
2022-10-01T04:27:11.123Z,12.60
2022-10-01T04:28:11.145Z,12.61
2022-10-01T04:29:11.050Z,12.64
2022-10-01T04:30:11.012Z,12.61
2022-10-01T04:31:11.054Z,12.70
2022-10-01T04:32:10.943Z,12.68
2022-10-01T04:33:10.907Z,12.70
2022-10-01T04:34:10.873Z,12.62
2022-10-01T04:35:10.856Z,12.78
2022-10-01T04:36:10.807Z,12.72
2022-10-01T04:37:10.767Z,12.68
2022-10-01T04:38:10.740Z,12.68
2022-10-01T04:39:10.692Z,12.68
2022-10-01T04:40:10.661Z,12.67
2022-10-01T04:41:10.622Z,12.72
2022-10-01T04:42:10.589Z,12.76
2022-10-01T04:43:10.552Z,12.78
2022-10-01T04:44:10.515Z,12.73
2022-10-01T04:45:10.480Z,12.82
2022-10-01T04:46:10.445Z,12.82
2022-10-01T04:47:10.438Z,12.82
2022-10-01T04:48:10.376Z,12.85
2022-10-01T04:49:10.338Z,12.83
2022-10-01T04:50:10.302Z,12.87
2022-10-01T04:51:10.266Z,12.86
2022-10-01T04:52:10.233Z,12.86
2022-10-01T04:53:10.196Z,12.85
2022-10-01T04:54:10.161Z,12.93
2022-10-01T04:55:10.125Z,12.86
2022-10-01T04:56:10.090Z,12.86
2022-10-01T04:57:10.072Z,12.93
2022-10-01T04:58:10.028Z,12.80
2022-10-01T04:59:09.984Z,12.90
2022-10-01T05:00:09.952Z,12.93
2022-10-01T05:01:09.970Z,12.95
2022-10-01T05:02:09.928Z,12.93
2022-10-01T05:03:09.840Z,12.86
2022-10-01T05:04:09.825Z,13.00
2022-10-01T05:05:09.776Z,12.97
2022-10-01T05:06:09.735Z,12.98
2022-10-01T05:07:09.702Z,12.97
2022-10-01T05:08:09.667Z,12.97
2022-10-01T05:09:09.634Z,12.95
2022-10-01T05:10:09.597Z,12.91
2022-10-01T05:11:09.562Z,12.98
2022-10-01T05:12:09.524Z,12.98
2022-10-01T05:13:09.491Z,12.98
2022-10-01T05:14:09.453Z,13.03
2022-10-01T05:15:09.433Z,13.05
2022-10-01T05:16:09.444Z,12.95
2022-10-01T05:17:09.359Z,12.97
2022-10-01T05:18:09.350Z,13.00
2022-10-01T05:19:09.279Z,13.15
2022-10-01T05:20:09.243Z,13.13
2022-10-01T05:21:09.206Z,13.04
2022-10-01T05:22:09.176Z,13.11
2022-10-01T05:23:09.147Z,12.97
2022-10-01T05:24:09.099Z,13.11
2022-10-01T05:25:09.080Z,13.11
2022-10-01T05:26:09.036Z,13.08
2022-10-01T05:27:08.999Z,13.09
2022-10-01T05:28:08.998Z,13.11
2022-10-01T05:29:08.929Z,13.05
2022-10-01T05:30:08.889Z,13.11
2022-10-01T05:31:08.906Z,13.15
2022-10-01T05:32:08.840Z,13.09
2022-10-01T05:33:08.790Z,13.09
2022-10-01T05:34:08.755Z,13.15
2022-10-01T05:35:08.717Z,13.08
2022-10-01T05:36:08.678Z,13.13
2022-10-01T05:37:08.646Z,13.15
2022-10-01T05:38:08.625Z,13.11
2022-10-01T05:39:08.572Z,13.18
2022-10-01T05:40:08.540Z,13.25
2022-10-01T05:41:08.500Z,13.20
2022-10-01T05:42:08.471Z,13.23
2022-10-01T05:43:08.434Z,13.15
2022-10-01T05:44:08.401Z,13.25
2022-10-01T05:45:08.371Z,13.15
2022-10-01T05:46:08.350Z,13.23
2022-10-01T05:47:08.293Z,13.31
2022-10-01T05:48:08.259Z,13.30
2022-10-01T05:49:08.247Z,13.37
2022-10-01T05:50:08.192Z,13.33
2022-10-01T05:51:08.212Z,13.30
2022-10-01T05:52:08.126Z,13.38
2022-10-01T05:53:08.094Z,13.39
2022-10-01T05:54:08.047Z,13.44
2022-10-01T05:55:08.015Z,13.39
2022-10-01T05:56:07.992Z,13.42
2022-10-01T05:57:07.943Z,13.42
2022-10-01T05:58:07.907Z,13.44
2022-10-01T05:59:07.872Z,13.53
2022-10-01T06:00:07.838Z,13.57
2022-10-01T06:01:07.805Z,13.56
2022-10-01T06:02:07.895Z,13.56
2022-10-01T06:03:07.868Z,13.63
2022-10-01T06:04:07.703Z,13.57
2022-10-01T06:05:07.668Z,13.62
2022-10-01T06:06:07.641Z,13.67
2022-10-01T06:07:07.601Z,13.57
2022-10-01T06:08:07.560Z,13.65
2022-10-01T06:09:07.531Z,13.71
2022-10-01T06:10:07.485Z,13.62
2022-10-01T06:11:07.452Z,13.65
2022-10-01T06:12:07.433Z,13.70
2022-10-01T06:13:07.384Z,13.70
2022-10-01T06:14:07.352Z,13.75
2022-10-01T06:15:07.314Z,13.75
2022-10-01T06:16:07.348Z,13.78
2022-10-01T06:17:07.246Z,13.77
2022-10-01T06:18:07.216Z,13.74
2022-10-01T06:19:07.177Z,13.65
2022-10-01T06:20:07.140Z,13.74
2022-10-01T06:21:07.106Z,13.77
2022-10-01T06:22:07.075Z,13.75
2022-10-01T06:23:07.036Z,13.79
2022-10-01T06:24:07.024Z,13.79
2022-10-01T06:25:06.969Z,13.63
2022-10-01T06:26:06.929Z,13.63
2022-10-01T06:27:06.897Z,13.65
2022-10-01T06:28:06.893Z,13.70
2022-10-01T06:29:06.827Z,13.63
2022-10-01T06:30:06.803Z,13.65
2022-10-01T06:31:06.755Z,13.71
2022-10-01T06:32:06.746Z,13.78
2022-10-01T06:33:06.702Z,13.78
2022-10-01T06:34:06.654Z,13.77
2022-10-01T06:35:06.623Z,13.79
2022-10-01T06:36:06.585Z,13.79
2022-10-01T06:37:06.549Z,13.77
2022-10-01T06:38:06.512Z,13.78
2022-10-01T06:39:06.494Z,13.85
2022-10-01T06:40:06.443Z,13.78
2022-10-01T06:41:06.411Z,13.83
2022-10-01T06:42:06.424Z,13.87
2022-10-01T06:43:06.338Z,13.85
2022-10-01T06:44:06.308Z,13.92
2022-10-01T06:45:06.270Z,13.96
2022-10-01T06:46:06.302Z,13.90
2022-10-01T06:47:06.257Z,13.92
2022-10-01T06:48:06.166Z,13.96
2022-10-01T06:49:06.133Z,13.96
2022-10-01T06:50:06.097Z,14.04
2022-10-01T06:51:06.065Z,14.05
2022-10-01T06:52:06.025Z,14.14
2022-10-01T06:53:05.998Z,14.10
2022-10-01T06:54:05.961Z,14.08
2022-10-01T06:55:05.922Z,14.03
2022-10-01T06:56:05.890Z,14.15
2022-10-01T06:57:05.854Z,14.14
2022-10-01T06:58:05.822Z,14.15
2022-10-01T06:59:05.786Z,14.11
2022-10-01T07:00:05.791Z,14.20
2022-10-01T07:01:05.821Z,14.14
2022-10-01T07:02:05.714Z,14.14
2022-10-01T07:03:05.657Z,14.23
2022-10-01T07:04:05.616Z,14.17
2022-10-01T07:05:05.597Z,14.18
2022-10-01T07:06:05.552Z,14.28
2022-10-01T07:07:05.508Z,14.18
2022-10-01T07:08:05.478Z,14.20
2022-10-01T07:09:05.447Z,14.22
2022-10-01T07:10:05.425Z,14.25
2022-10-01T07:11:05.370Z,14.29
2022-10-01T07:12:05.336Z,14.32
2022-10-01T07:13:05.305Z,14.28
2022-10-01T07:14:05.268Z,14.30
2022-10-01T07:15:05.231Z,14.35
2022-10-01T07:16:05.280Z,14.43
2022-10-01T07:17:05.163Z,14.36
2022-10-01T07:18:05.132Z,14.53
2022-10-01T07:19:05.092Z,14.47
2022-10-01T07:20:05.089Z,14.51
2022-10-01T07:21:05.029Z,14.47
2022-10-01T07:22:04.995Z,14.48
2022-10-01T07:23:04.997Z,14.48
2022-10-01T07:24:04.924Z,14.55
2022-10-01T07:25:04.891Z,14.58
2022-10-01T07:26:04.855Z,14.55
2022-10-01T07:27:07.361Z,14.54
2022-10-01T07:28:04.882Z,14.60
2022-10-01T07:29:04.755Z,14.59
2022-10-01T07:30:04.719Z,14.68
2022-10-01T07:31:04.724Z,14.60
2022-10-01T07:32:04.707Z,14.65
2022-10-01T07:33:04.612Z,14.72
2022-10-01T07:34:04.580Z,14.73
2022-10-01T07:35:04.545Z,14.78
2022-10-01T07:36:04.544Z,14.77
2022-10-01T07:37:04.479Z,14.85
2022-10-01T07:38:04.441Z,14.88
2022-10-01T07:39:04.410Z,14.86
2022-10-01T07:40:07.557Z,14.94
2022-10-01T07:41:04.441Z,14.96
2022-10-01T07:42:04.307Z,14.96
2022-10-01T07:43:04.275Z,15.03
2022-10-01T07:44:04.246Z,15.00
2022-10-01T07:45:04.203Z,15.02
2022-10-01T07:46:04.208Z,15.02
2022-10-01T07:47:04.137Z,15.06
2022-10-01T07:48:04.100Z,15.00
2022-10-01T07:49:04.071Z,15.14
2022-10-01T07:50:04.045Z,15.19
2022-10-01T07:51:04.000Z,15.25
2022-10-01T07:52:03.966Z,15.25
2022-10-01T07:53:03.933Z,15.21
2022-10-01T07:54:03.902Z,15.28
2022-10-01T07:55:03.867Z,15.22
2022-10-01T07:56:03.832Z,15.25
2022-10-01T07:57:03.835Z,15.39
2022-10-01T07:58:03.761Z,15.42
2022-10-01T07:59:03.732Z,15.39
2022-10-01T08:00:03.696Z,15.42
2022-10-01T08:01:03.716Z,15.46
2022-10-01T08:02:03.693Z,15.57
2022-10-01T08:03:03.613Z,15.61
2022-10-01T08:04:03.565Z,15.67
2022-10-01T08:05:03.529Z,15.65
2022-10-01T08:06:03.493Z,15.62
2022-10-01T08:07:03.497Z,15.73
2022-10-01T08:08:03.428Z,15.70
2022-10-01T08:09:03.393Z,15.84
2022-10-01T08:10:03.392Z,15.83
2022-10-01T08:11:03.324Z,15.90
2022-10-01T08:12:03.293Z,15.91
2022-10-01T08:13:03.261Z,15.95
2022-10-01T08:14:03.223Z,16.00
2022-10-01T08:15:03.209Z,16.01
2022-10-01T08:16:03.159Z,15.95
2022-10-01T08:17:03.123Z,16.08
2022-10-01T08:18:03.114Z,16.01
2022-10-01T08:19:03.055Z,16.10
2022-10-01T08:20:03.101Z,16.16
2022-10-01T08:21:02.989Z,16.13
2022-10-01T08:22:02.955Z,16.13
2022-10-01T08:23:02.930Z,16.17
2022-10-01T08:24:02.890Z,16.21
2022-10-01T08:25:02.860Z,16.20
2022-10-01T08:26:02.825Z,16.15
2022-10-01T08:27:02.789Z,16.17
2022-10-01T08:28:02.827Z,16.12
2022-10-01T08:29:02.725Z,16.09
2022-10-01T08:30:02.714Z,16.33
2022-10-01T08:31:02.659Z,16.29
2022-10-01T08:32:02.647Z,16.32
2022-10-01T08:33:02.590Z,16.32
2022-10-01T08:34:02.556Z,16.29
2022-10-01T08:35:02.560Z,16.29
2022-10-01T08:36:02.492Z,16.28
2022-10-01T08:37:02.456Z,16.23
2022-10-01T08:38:02.423Z,16.33
2022-10-01T08:39:02.426Z,16.33
2022-10-01T08:40:02.360Z,16.24
2022-10-01T08:41:02.329Z,16.33
2022-10-01T08:42:02.297Z,16.28
2022-10-01T08:43:02.254Z,16.21
2022-10-01T08:44:02.221Z,16.33
2022-10-01T08:45:02.196Z,16.28
2022-10-01T08:46:02.274Z,16.35
2022-10-01T08:47:02.123Z,16.35
2022-10-01T08:48:02.101Z,16.26
2022-10-01T08:49:02.062Z,16.28
2022-10-01T08:50:02.043Z,16.29
2022-10-01T08:51:01.991Z,16.31
2022-10-01T08:52:01.959Z,16.24
2022-10-01T08:53:01.928Z,16.33
2022-10-01T08:54:01.890Z,16.28
2022-10-01T08:55:01.877Z,16.26
2022-10-01T08:56:01.824Z,16.39
2022-10-01T08:57:01.789Z,16.24
2022-10-01T08:58:01.757Z,16.31
2022-10-01T08:59:01.725Z,16.13
2022-10-01T09:00:01.707Z,16.26
2022-10-01T09:01:01.733Z,16.13
2022-10-01T09:02:01.630Z,16.13
2022-10-01T09:03:01.595Z,16.09
2022-10-01T09:04:01.629Z,16.13
2022-10-01T09:05:02.398Z,16.15
2022-10-01T09:06:01.492Z,16.17
2022-10-01T09:07:01.463Z,16.32
2022-10-01T09:08:01.424Z,16.17
2022-10-01T09:09:01.399Z,16.12
2022-10-01T09:10:01.360Z,16.20
2022-10-01T09:11:01.327Z,16.16
2022-10-01T09:12:01.295Z,16.08
2022-10-01T09:13:01.279Z,16.24
2022-10-01T09:14:01.228Z,16.31
2022-10-01T09:15:01.194Z,16.35
2022-10-01T09:16:01.216Z,16.35
2022-10-01T09:17:01.144Z,16.28
2022-10-01T09:18:01.094Z,16.26
2022-10-01T09:19:01.069Z,16.32
2022-10-01T09:20:01.031Z,16.41
2022-10-01T09:21:00.997Z,16.41
2022-10-01T09:22:00.964Z,16.38
2022-10-01T09:23:00.931Z,16.41
2022-10-01T09:24:00.901Z,16.39
2022-10-01T09:25:00.863Z,16.54
2022-10-01T09:26:00.849Z,16.53
2022-10-01T09:27:00.799Z,16.51
2022-10-01T09:28:00.828Z,16.66
2022-10-01T09:29:00.730Z,16.69
2022-10-01T09:30:00.712Z,16.64
2022-10-01T09:31:00.667Z,16.65
2022-10-01T09:32:00.685Z,16.68
2022-10-01T09:33:00.599Z,16.78
2022-10-01T09:34:00.568Z,16.79
2022-10-01T09:35:04.221Z,16.89
2022-10-01T09:36:00.504Z,17.04
2022-10-01T09:37:00.511Z,17.05
2022-10-01T09:38:00.435Z,17.11
2022-10-01T09:39:00.405Z,17.02
2022-10-01T09:40:00.368Z,17.09
2022-10-01T09:41:00.346Z,17.04
2022-10-01T09:42:00.300Z,17.08
2022-10-01T09:43:00.271Z,16.99
2022-10-01T09:44:00.242Z,17.12
2022-10-01T09:45:00.219Z,17.20
2022-10-01T09:46:00.306Z,17.22
2022-10-01T09:47:00.161Z,17.27
2022-10-01T09:48:00.149Z,17.38
2022-10-01T09:49:00.122Z,17.39
2022-10-01T09:50:00.043Z,17.23
2022-10-01T09:51:00.009Z,17.26
2022-10-01T09:51:59.980Z,17.24
2022-10-01T09:52:59.946Z,17.24
2022-10-01T09:53:59.908Z,17.33
2022-10-01T09:54:59.874Z,17.33
2022-10-01T09:55:59.846Z,17.31
2022-10-01T09:56:59.812Z,17.34
2022-10-01T09:57:59.794Z,17.39
2022-10-01T09:58:59.746Z,17.41
2022-10-01T09:59:59.717Z,17.31
2022-10-01T10:00:59.682Z,17.34
2022-10-01T10:01:59.783Z,17.31
2022-10-01T10:02:59.845Z,17.46
2022-10-01T10:03:59.583Z,17.41
2022-10-01T10:04:59.555Z,17.59
2022-10-01T10:05:59.558Z,17.63
2022-10-01T10:06:59.487Z,17.83
2022-10-01T10:07:59.458Z,17.76
2022-10-01T10:08:59.425Z,17.87
2022-10-01T10:09:59.395Z,18.00
2022-10-01T10:10:59.358Z,17.94
2022-10-01T10:11:59.329Z,17.90
2022-10-01T10:12:59.295Z,17.86
2022-10-01T10:13:59.265Z,17.90
2022-10-01T10:14:59.229Z,17.82
2022-10-01T10:15:59.346Z,17.85
2022-10-01T10:16:59.171Z,17.92
2022-10-01T10:17:59.136Z,18.07
2022-10-01T10:18:59.110Z,18.10
2022-10-01T10:19:59.090Z,18.10
2022-10-01T10:20:59.047Z,18.08
2022-10-01T10:21:59.005Z,18.00
2022-10-01T10:22:58.975Z,18.03
2022-10-01T10:23:58.971Z,18.00
2022-10-01T10:24:58.917Z,18.11
2022-10-01T10:25:58.879Z,18.16
2022-10-01T10:26:58.845Z,18.13
2022-10-01T10:27:58.870Z,18.20
2022-10-01T10:28:58.785Z,18.37
2022-10-01T10:29:58.754Z,18.43
2022-10-01T10:30:58.717Z,18.50
2022-10-01T10:31:58.767Z,18.52
2022-10-01T10:32:58.653Z,18.74
2022-10-01T10:33:58.626Z,18.89
2022-10-01T10:35:02.744Z,19.07
2022-10-01T10:35:58.560Z,19.16
2022-10-01T10:36:58.541Z,18.93
2022-10-01T10:37:58.494Z,18.96
2022-10-01T10:38:58.471Z,18.98
2022-10-01T10:39:58.450Z,19.07
2022-10-01T10:40:58.402Z,19.08
2022-10-01T10:41:58.370Z,18.95
2022-10-01T10:42:58.338Z,18.81
2022-10-01T10:43:58.305Z,18.98
2022-10-01T10:44:58.277Z,18.95
2022-10-01T10:45:58.294Z,18.92
2022-10-01T10:46:58.262Z,18.98
2022-10-01T10:47:58.182Z,19.16
2022-10-01T10:48:58.149Z,19.24
2022-10-01T10:49:58.119Z,19.45
2022-10-01T10:50:58.088Z,19.33
2022-10-01T10:51:58.055Z,19.55
2022-10-01T10:52:58.026Z,19.67
2022-10-01T10:53:57.993Z,19.88
2022-10-01T10:54:57.966Z,19.76
2022-10-01T10:55:57.937Z,19.85
2022-10-01T10:56:57.904Z,19.85
2022-10-01T10:57:59.166Z,19.66
2022-10-01T10:58:57.838Z,19.74
2022-10-01T10:59:57.808Z,19.62
2022-10-01T11:00:57.847Z,19.62
2022-10-01T11:01:57.901Z,19.59
2022-10-01T11:02:57.713Z,19.48
2022-10-01T11:03:57.687Z,19.64
2022-10-01T11:04:57.654Z,19.59
2022-10-01T11:05:57.621Z,19.79
2022-10-01T11:06:57.593Z,20.00
2022-10-01T11:07:57.563Z,20.04
2022-10-01T11:08:57.545Z,20.10
2022-10-01T11:09:57.502Z,20.04
2022-10-01T11:10:57.470Z,20.06
2022-10-01T11:11:57.438Z,20.31
2022-10-01T11:12:57.412Z,20.43
2022-10-01T11:13:57.385Z,20.62
2022-10-01T11:14:57.346Z,20.67
2022-10-01T11:15:57.384Z,20.63
2022-10-01T11:16:57.291Z,20.77
2022-10-01T11:17:57.258Z,20.96
2022-10-01T11:18:57.247Z,20.66
2022-10-01T11:19:57.195Z,20.51
2022-10-01T11:20:57.165Z,20.16
2022-10-01T11:21:57.143Z,20.13
2022-10-01T11:22:57.141Z,20.09
2022-10-01T11:23:57.075Z,20.02
2022-10-01T11:24:57.078Z,19.91
2022-10-01T11:25:57.027Z,19.94
2022-10-01T11:26:56.985Z,20.00
2022-10-01T11:27:56.988Z,20.00
2022-10-01T11:28:56.923Z,20.06
2022-10-01T11:29:56.892Z,19.99
2022-10-01T11:30:56.970Z,20.10
2022-10-01T11:31:56.832Z,20.07
2022-10-01T11:32:56.802Z,20.00
2022-10-01T11:33:56.771Z,19.85
2022-10-01T11:34:56.746Z,19.82
2022-10-01T11:35:56.709Z,19.74
2022-10-01T11:36:56.683Z,19.67
2022-10-01T11:37:56.652Z,19.47
2022-10-01T11:38:56.623Z,19.44
2022-10-01T11:39:56.590Z,19.26
2022-10-01T11:40:56.561Z,19.24
2022-10-01T11:41:56.526Z,19.33
2022-10-01T11:42:56.497Z,19.59
2022-10-01T11:43:56.469Z,19.45
2022-10-01T11:45:00.532Z,19.40
2022-10-01T11:45:56.520Z,19.47
2022-10-01T11:46:56.412Z,19.37
2022-10-01T11:47:56.347Z,19.36
2022-10-01T11:48:56.317Z,19.51
2022-10-01T11:49:56.284Z,19.49
2022-10-01T11:50:56.263Z,19.29
2022-10-01T11:51:56.225Z,19.33
2022-10-01T11:52:56.191Z,19.39
2022-10-01T11:53:56.163Z,19.37
2022-10-01T11:54:56.485Z,19.39
2022-10-01T11:55:56.098Z,19.36
2022-10-01T11:56:56.069Z,19.34
2022-10-01T11:57:56.037Z,19.39
2022-10-01T11:58:56.009Z,19.49
2022-10-01T11:59:55.984Z,19.58
2022-10-01T12:00:55.943Z,19.66
2022-10-01T12:01:55.966Z,19.69
2022-10-01T12:02:55.883Z,19.66
2022-10-01T12:03:55.852Z,19.58
2022-10-01T12:04:55.821Z,19.74
2022-10-01T12:05:55.823Z,20.03
2022-10-01T12:06:55.761Z,20.18
2022-10-01T12:07:55.779Z,20.32
2022-10-01T12:08:55.709Z,20.60
2022-10-01T12:09:55.669Z,20.77
2022-10-01T12:10:55.652Z,20.90
2022-10-01T12:11:55.609Z,20.81
2022-10-01T12:12:55.605Z,20.65
2022-10-01T12:13:55.547Z,20.29
2022-10-01T12:14:55.519Z,20.21
2022-10-01T12:15:55.627Z,20.07
2022-10-01T12:16:55.462Z,19.82
2022-10-01T12:17:55.428Z,19.88
2022-10-01T12:18:55.397Z,19.67
2022-10-01T12:19:55.364Z,19.64
2022-10-01T12:20:55.335Z,19.84
2022-10-01T12:21:55.307Z,20.02
2022-10-01T12:22:55.278Z,20.07
2022-10-01T12:23:55.260Z,20.34
2022-10-01T12:24:55.216Z,20.74
2022-10-01T12:25:55.184Z,20.55
2022-10-01T12:26:55.156Z,20.72
2022-10-01T12:27:55.149Z,21.03
2022-10-01T12:29:00.009Z,21.15
2022-10-01T12:29:55.069Z,21.12
2022-10-01T12:30:55.084Z,21.11
2022-10-01T12:31:55.003Z,21.20
2022-10-01T12:32:54.985Z,21.00
2022-10-01T12:33:54.946Z,20.87
2022-10-01T12:34:54.974Z,20.66
2022-10-01T12:35:54.885Z,20.77
2022-10-01T12:36:54.852Z,20.70
2022-10-01T12:37:54.828Z,21.05
2022-10-01T12:38:54.799Z,21.24
2022-10-01T12:39:54.776Z,21.40
2022-10-01T12:40:54.743Z,21.18
2022-10-01T12:41:54.708Z,21.18
2022-10-01T12:42:54.693Z,20.97
2022-10-01T12:43:54.653Z,21.00
2022-10-01T12:44:54.622Z,20.67
2022-10-01T12:45:54.611Z,20.50
2022-10-01T12:46:54.561Z,20.74
2022-10-01T12:47:54.536Z,20.34
2022-10-01T12:48:54.504Z,20.47
2022-10-01T12:49:54.480Z,20.82
2022-10-01T12:50:54.447Z,21.06
2022-10-01T12:51:54.418Z,21.05